Huvudsida
METAR-TAF:

METAR-TAF

Flygplatser :

Enontekis, Finland

Enontekis flygplats

latitud: 68-21-52N, longitud: 023-25-39E, höjd: 308 m

Aktuellt väderrapport

Denna rapport gjordes för 31 minuter sedan, klockan 10:20 UTC
Vind 3 kt från syd/sydost
Temperatur -16°C
Fuktighet 84%
Tryck 1005 hPa
Sikt: 2500 m
Mulet på en höjd av 2000 ft
lätt snö

METAR: EFET 171020Z AUTO 15003KT 2500 -SN OVC020 M16/M18 Q1005

Tid: 12:51 (10:51 UTC)


TAF: saknas

Aktuella väderrapporter och prognoser från 4000 flygplatser (METAR- och TAF-rapporter).

De tillgängliga stationerna syns som gula och röda prickar på kartan.

För musen över prickarna för att se namnen på stationerna.

Klicka sedan för att få väderrapporter och prognoser.

För att ändra kartan: Klicka på de gröna knapparna med ett svart kors på för att zooma in; den gröna knappen med ett streck på för att zooma ut; eller på de gröna pilarna för angränsande kartor.


METAR-TAF: